Anthony, Indiana
Current Conditions -  °F | °C
As of 8:53 AM on Friday 24 Oct 2014 (Local Time) from KMIE Reporting Station
Clear Clear  
Wind Chill: 43°   Ceiling: Unl
Heat Index: 46°   Visibility: 10mi
Dew Point: 39°   Wind: 6mph
Humidity: 76%   Direction: 210°SSW
Pressure: 30.1"   Gusts: NA
Location:  40.2763°N, 85.3769°W
Report Text: KMIE 241253Z 21005KT 10SM CLR 08/04 A3010 RMK AO2 SLP192 T00780039
Loading
Personal Weather Stations






























Interactive Weather Map
Tropical Storm Tracking
New forecast layout! Learn more

10-Day Weather Forecast

Advertisements
Track Severe Weather on mobile